sensor_id;sensor_type;location;lat;lon;timestamp;P1;durP1;ratioP1;P2;durP2;ratioP2
69030;SDS011;56083;48.774;8.942;2022-08-21T00:00:22;9.13;;;2.65;;
69030;SDS011;56083;48.774;8.942;2022-08-21T00:02:51;6.70;;;3.17;;
69030;SDS011;56083;48.774;8.942;2022-08-21T00:05:37;6.65;;;2.72;;
69030;SDS011;56083;48.774;8.942;2022-08-21T00:08:05;8.23;;;2.85;;
69030;SDS011;56083;48.774;8.942;2022-08-21T00:10:31;9.23;;;2.63;;
69030;SDS011;56083;48.774;8.942;2022-08-21T00:12:57;10.77;;;3.30;;
69030;SDS011;56083;48.774;8.942;2022-08-21T00:15:24;6.50;;;2.63;;
69030;SDS011;56083;48.774;8.942;2022-08-21T00:17:52;9.60;;;2.80;;
69030;SDS011;56083;48.774;8.942;2022-08-21T00:20:19;7.55;;;3.00;;
69030;SDS011;56083;48.774;8.942;2022-08-21T00:22:45;6.13;;;2.55;;
69030;SDS011;56083;48.774;8.942;2022-08-21T00:25:11;6.10;;;2.47;;
69030;SDS011;56083;48.774;8.942;2022-08-21T00:27:39;7.97;;;3.03;;
69030;SDS011;56083;48.774;8.942;2022-08-21T00:30:07;9.05;;;2.95;;
69030;SDS011;56083;48.774;8.942;2022-08-21T00:32:35;9.10;;;2.67;;
69030;SDS011;56083;48.774;8.942;2022-08-21T00:35:03;8.02;;;2.95;;
69030;SDS011;56083;48.774;8.942;2022-08-21T00:37:30;7.28;;;2.97;;
69030;SDS011;56083;48.774;8.942;2022-08-21T00:39:55;8.07;;;2.38;;
69030;SDS011;56083;48.774;8.942;2022-08-21T00:42:21;7.10;;;2.70;;
69030;SDS011;56083;48.774;8.942;2022-08-21T00:44:48;6.45;;;2.67;;
69030;SDS011;56083;48.774;8.942;2022-08-21T00:47:15;9.10;;;3.15;;
69030;SDS011;56083;48.774;8.942;2022-08-21T00:49:42;5.00;;;2.72;;
69030;SDS011;56083;48.774;8.942;2022-08-21T00:52:09;7.40;;;2.65;;
69030;SDS011;56083;48.774;8.942;2022-08-21T00:54:39;8.77;;;2.50;;
69030;SDS011;56083;48.774;8.942;2022-08-21T00:57:10;7.53;;;2.78;;
69030;SDS011;56083;48.774;8.942;2022-08-21T00:59:41;8.80;;;2.95;;
69030;SDS011;56083;48.774;8.942;2022-08-21T01:02:11;8.25;;;2.70;;
69030;SDS011;56083;48.774;8.942;2022-08-21T01:04:37;11.73;;;3.10;;
69030;SDS011;56083;48.774;8.942;2022-08-21T01:07:03;6.45;;;2.70;;
69030;SDS011;56083;48.774;8.942;2022-08-21T01:09:29;7.60;;;2.85;;
69030;SDS011;56083;48.774;8.942;2022-08-21T01:11:55;7.70;;;2.90;;
69030;SDS011;56083;48.774;8.942;2022-08-21T01:14:21;6.15;;;2.95;;
69030;SDS011;56083;48.774;8.942;2022-08-21T01:16:48;9.43;;;2.55;;
69030;SDS011;56083;48.774;8.942;2022-08-21T01:19:17;7.78;;;2.75;;
69030;SDS011;56083;48.774;8.942;2022-08-21T01:21:45;11.80;;;3.08;;
69030;SDS011;56083;48.774;8.942;2022-08-21T01:24:11;8.32;;;2.97;;
69030;SDS011;56083;48.774;8.942;2022-08-21T01:26:38;7.57;;;2.75;;
69030;SDS011;56083;48.774;8.942;2022-08-21T01:29:06;8.88;;;2.95;;
69030;SDS011;56083;48.774;8.942;2022-08-21T01:31:33;6.07;;;3.00;;
69030;SDS011;56083;48.774;8.942;2022-08-21T01:33:59;9.25;;;3.28;;
69030;SDS011;56083;48.774;8.942;2022-08-21T01:36:25;8.45;;;3.10;;
69030;SDS011;56083;48.774;8.942;2022-08-21T01:38:52;8.68;;;2.80;;
69030;SDS011;56083;48.774;8.942;2022-08-21T01:41:17;7.05;;;2.60;;
69030;SDS011;56083;48.774;8.942;2022-08-21T01:43:43;10.30;;;3.08;;
69030;SDS011;56083;48.774;8.942;2022-08-21T01:46:10;7.30;;;2.80;;
69030;SDS011;56083;48.774;8.942;2022-08-21T01:48:37;7.63;;;3.03;;
69030;SDS011;56083;48.774;8.942;2022-08-21T01:51:03;7.93;;;3.13;;
69030;SDS011;56083;48.774;8.942;2022-08-21T01:53:30;10.45;;;3.40;;
69030;SDS011;56083;48.774;8.942;2022-08-21T01:55:56;6.15;;;2.72;;
69030;SDS011;56083;48.774;8.942;2022-08-21T01:58:22;7.25;;;3.25;;
69030;SDS011;56083;48.774;8.942;2022-08-21T02:00:47;9.48;;;3.03;;
69030;SDS011;56083;48.774;8.942;2022-08-21T02:03:14;6.68;;;3.13;;
69030;SDS011;56083;48.774;8.942;2022-08-21T02:05:40;6.82;;;3.00;;
69030;SDS011;56083;48.774;8.942;2022-08-21T02:08:06;8.00;;;2.88;;
69030;SDS011;56083;48.774;8.942;2022-08-21T02:10:32;5.80;;;3.10;;
69030;SDS011;56083;48.774;8.942;2022-08-21T02:12:58;6.20;;;3.08;;
69030;SDS011;56083;48.774;8.942;2022-08-21T02:15:25;8.10;;;3.22;;
69030;SDS011;56083;48.774;8.942;2022-08-21T02:17:52;8.48;;;3.45;;
69030;SDS011;56083;48.774;8.942;2022-08-21T02:20:28;7.95;;;3.40;;
69030;SDS011;56083;48.774;8.942;2022-08-21T02:22:59;8.20;;;3.00;;
69030;SDS011;56083;48.774;8.942;2022-08-21T02:25:26;8.18;;;3.20;;
69030;SDS011;56083;48.774;8.942;2022-08-21T02:27:53;8.75;;;3.13;;
69030;SDS011;56083;48.774;8.942;2022-08-21T02:30:23;8.07;;;3.00;;
69030;SDS011;56083;48.774;8.942;2022-08-21T02:32:51;6.93;;;3.08;;
69030;SDS011;56083;48.774;8.942;2022-08-21T02:35:17;7.97;;;3.05;;
69030;SDS011;56083;48.774;8.942;2022-08-21T02:37:45;7.35;;;2.90;;
69030;SDS011;56083;48.774;8.942;2022-08-21T02:40:14;7.07;;;2.88;;
69030;SDS011;56083;48.774;8.942;2022-08-21T02:42:40;6.95;;;3.20;;
69030;SDS011;56083;48.774;8.942;2022-08-21T02:45:06;6.68;;;2.90;;
69030;SDS011;56083;48.774;8.942;2022-08-21T02:47:32;9.00;;;2.92;;
69030;SDS011;56083;48.774;8.942;2022-08-21T02:49:58;6.47;;;3.25;;
69030;SDS011;56083;48.774;8.942;2022-08-21T02:52:23;10.18;;;3.22;;
69030;SDS011;56083;48.774;8.942;2022-08-21T02:54:49;8.48;;;3.47;;
69030;SDS011;56083;48.774;8.942;2022-08-21T02:57:15;9.68;;;3.33;;
69030;SDS011;56083;48.774;8.942;2022-08-21T02:59:41;8.23;;;3.40;;
69030;SDS011;56083;48.774;8.942;2022-08-21T03:02:06;6.88;;;2.90;;
69030;SDS011;56083;48.774;8.942;2022-08-21T03:04:32;7.63;;;3.55;;
69030;SDS011;56083;48.774;8.942;2022-08-21T03:06:58;12.07;;;3.55;;
69030;SDS011;56083;48.774;8.942;2022-08-21T03:09:23;7.57;;;3.33;;
69030;SDS011;56083;48.774;8.942;2022-08-21T03:11:49;8.32;;;3.28;;
69030;SDS011;56083;48.774;8.942;2022-08-21T03:14:16;8.40;;;3.15;;
69030;SDS011;56083;48.774;8.942;2022-08-21T03:16:42;6.55;;;2.95;;
69030;SDS011;56083;48.774;8.942;2022-08-21T03:19:08;9.75;;;3.72;;
69030;SDS011;56083;48.774;8.942;2022-08-21T03:21:34;7.00;;;3.75;;
69030;SDS011;56083;48.774;8.942;2022-08-21T03:24:00;8.00;;;3.35;;
69030;SDS011;56083;48.774;8.942;2022-08-21T03:26:25;7.07;;;3.60;;
69030;SDS011;56083;48.774;8.942;2022-08-21T03:28:51;10.13;;;3.85;;
69030;SDS011;56083;48.774;8.942;2022-08-21T03:31:17;7.03;;;3.20;;
69030;SDS011;56083;48.774;8.942;2022-08-21T03:33:43;8.27;;;3.53;;
69030;SDS011;56083;48.774;8.942;2022-08-21T03:36:09;8.07;;;4.00;;
69030;SDS011;56083;48.774;8.942;2022-08-21T03:38:35;8.05;;;3.70;;
69030;SDS011;56083;48.774;8.942;2022-08-21T03:41:06;6.65;;;3.60;;
69030;SDS011;56083;48.774;8.942;2022-08-21T03:43:32;7.18;;;3.33;;
69030;SDS011;56083;48.774;8.942;2022-08-21T03:46:02;8.63;;;3.95;;
69030;SDS011;56083;48.774;8.942;2022-08-21T03:48:28;6.65;;;3.80;;
69030;SDS011;56083;48.774;8.942;2022-08-21T03:50:54;7.95;;;3.50;;
69030;SDS011;56083;48.774;8.942;2022-08-21T03:53:21;6.97;;;3.53;;
69030;SDS011;56083;48.774;8.942;2022-08-21T03:55:48;9.25;;;3.72;;
69030;SDS011;56083;48.774;8.942;2022-08-21T03:58:16;7.90;;;3.53;;
69030;SDS011;56083;48.774;8.942;2022-08-21T04:00:44;12.57;;;3.97;;
69030;SDS011;56083;48.774;8.942;2022-08-21T04:03:11;9.38;;;4.18;;
69030;SDS011;56083;48.774;8.942;2022-08-21T04:05:37;9.35;;;3.90;;
69030;SDS011;56083;48.774;8.942;2022-08-21T04:08:04;10.15;;;3.58;;
69030;SDS011;56083;48.774;8.942;2022-08-21T04:10:32;7.95;;;3.70;;
69030;SDS011;56083;48.774;8.942;2022-08-21T04:12:59;11.30;;;4.07;;
69030;SDS011;56083;48.774;8.942;2022-08-21T04:15:26;9.50;;;4.10;;
69030;SDS011;56083;48.774;8.942;2022-08-21T04:17:52;9.95;;;4.07;;
69030;SDS011;56083;48.774;8.942;2022-08-21T04:20:18;9.27;;;4.00;;
69030;SDS011;56083;48.774;8.942;2022-08-21T04:22:46;8.38;;;3.80;;
69030;SDS011;56083;48.774;8.942;2022-08-21T04:25:13;10.75;;;4.10;;
69030;SDS011;56083;48.774;8.942;2022-08-21T04:27:39;8.45;;;3.90;;
69030;SDS011;56083;48.774;8.942;2022-08-21T04:30:05;8.60;;;3.92;;
69030;SDS011;56083;48.774;8.942;2022-08-21T04:32:32;8.65;;;3.42;;
69030;SDS011;56083;48.774;8.942;2022-08-21T04:35:02;9.13;;;3.97;;
69030;SDS011;56083;48.774;8.942;2022-08-21T04:37:30;11.55;;;3.97;;
69030;SDS011;56083;48.774;8.942;2022-08-21T04:39:56;6.72;;;3.78;;
69030;SDS011;56083;48.774;8.942;2022-08-21T04:42:25;6.97;;;3.50;;
69030;SDS011;56083;48.774;8.942;2022-08-21T04:44:51;6.97;;;3.80;;
69030;SDS011;56083;48.774;8.942;2022-08-21T04:47:17;9.25;;;3.78;;
69030;SDS011;56083;48.774;8.942;2022-08-21T04:49:43;7.35;;;3.70;;
69030;SDS011;56083;48.774;8.942;2022-08-21T04:52:10;10.45;;;4.30;;
69030;SDS011;56083;48.774;8.942;2022-08-21T04:54:38;6.28;;;3.95;;
69030;SDS011;56083;48.774;8.942;2022-08-21T04:57:06;9.27;;;3.38;;
69030;SDS011;56083;48.774;8.942;2022-08-21T04:59:40;6.05;;;3.30;;
69030;SDS011;56083;48.774;8.942;2022-08-21T05:02:12;8.55;;;3.50;;
69030;SDS011;56083;48.774;8.942;2022-08-21T05:04:42;15.10;;;3.55;;
69030;SDS011;56083;48.774;8.942;2022-08-21T05:07:12;6.05;;;3.22;;
69030;SDS011;56083;48.774;8.942;2022-08-21T05:09:41;6.45;;;3.60;;
69030;SDS011;56083;48.774;8.942;2022-08-21T05:12:07;7.25;;;3.63;;
69030;SDS011;56083;48.774;8.942;2022-08-21T05:14:33;8.20;;;3.83;;
69030;SDS011;56083;48.774;8.942;2022-08-21T05:16:58;6.57;;;3.85;;
69030;SDS011;56083;48.774;8.942;2022-08-21T05:19:24;7.85;;;3.58;;
69030;SDS011;56083;48.774;8.942;2022-08-21T05:21:50;8.93;;;3.40;;
69030;SDS011;56083;48.774;8.942;2022-08-21T05:24:16;11.68;;;3.63;;
69030;SDS011;56083;48.774;8.942;2022-08-21T05:26:43;9.73;;;3.55;;
69030;SDS011;56083;48.774;8.942;2022-08-21T05:29:09;8.77;;;3.53;;
69030;SDS011;56083;48.774;8.942;2022-08-21T05:31:36;11.57;;;3.70;;
69030;SDS011;56083;48.774;8.942;2022-08-21T05:34:02;6.35;;;3.42;;
69030;SDS011;56083;48.774;8.942;2022-08-21T05:36:28;7.50;;;3.00;;
69030;SDS011;56083;48.774;8.942;2022-08-21T05:38:54;7.10;;;3.28;;
69030;SDS011;56083;48.774;8.942;2022-08-21T05:41:20;8.93;;;3.22;;
69030;SDS011;56083;48.774;8.942;2022-08-21T05:43:46;8.60;;;3.60;;
69030;SDS011;56083;48.774;8.942;2022-08-21T05:46:12;6.82;;;3.40;;
69030;SDS011;56083;48.774;8.942;2022-08-21T05:48:37;6.32;;;3.10;;
69030;SDS011;56083;48.774;8.942;2022-08-21T05:51:09;9.25;;;3.60;;
69030;SDS011;56083;48.774;8.942;2022-08-21T05:53:37;9.57;;;3.38;;
69030;SDS011;56083;48.774;8.942;2022-08-21T05:56:05;7.82;;;3.08;;
69030;SDS011;56083;48.774;8.942;2022-08-21T05:58:32;6.47;;;3.20;;
69030;SDS011;56083;48.774;8.942;2022-08-21T06:00:59;10.07;;;3.60;;
69030;SDS011;56083;48.774;8.942;2022-08-21T06:03:27;6.40;;;3.00;;
69030;SDS011;56083;48.774;8.942;2022-08-21T06:05:55;10.30;;;3.50;;
69030;SDS011;56083;48.774;8.942;2022-08-21T06:08:23;7.47;;;3.42;;
69030;SDS011;56083;48.774;8.942;2022-08-21T06:10:50;9.27;;;3.10;;
69030;SDS011;56083;48.774;8.942;2022-08-21T06:13:16;9.93;;;3.15;;
69030;SDS011;56083;48.774;8.942;2022-08-21T06:15:43;12.13;;;3.28;;
69030;SDS011;56083;48.774;8.942;2022-08-21T06:18:09;7.82;;;3.15;;
69030;SDS011;56083;48.774;8.942;2022-08-21T06:20:35;8.52;;;3.30;;
69030;SDS011;56083;48.774;8.942;2022-08-21T06:23:01;12.15;;;3.33;;
69030;SDS011;56083;48.774;8.942;2022-08-21T06:25:27;8.85;;;3.15;;
69030;SDS011;56083;48.774;8.942;2022-08-21T06:27:53;11.88;;;3.08;;
69030;SDS011;56083;48.774;8.942;2022-08-21T06:30:29;11.07;;;3.47;;
69030;SDS011;56083;48.774;8.942;2022-08-21T06:32:55;7.55;;;2.92;;
69030;SDS011;56083;48.774;8.942;2022-08-21T06:35:20;7.03;;;2.83;;
69030;SDS011;56083;48.774;8.942;2022-08-21T06:37:46;7.07;;;2.70;;
69030;SDS011;56083;48.774;8.942;2022-08-21T06:40:12;9.13;;;3.00;;
69030;SDS011;56083;48.774;8.942;2022-08-21T06:42:37;6.70;;;2.60;;
69030;SDS011;56083;48.774;8.942;2022-08-21T06:45:04;7.93;;;2.95;;
69030;SDS011;56083;48.774;8.942;2022-08-21T06:47:30;7.72;;;2.75;;
69030;SDS011;56083;48.774;8.942;2022-08-21T06:49:56;8.45;;;2.60;;
69030;SDS011;56083;48.774;8.942;2022-08-21T06:52:22;4.22;;;2.22;;
69030;SDS011;56083;48.774;8.942;2022-08-21T06:54:47;9.02;;;2.75;;
69030;SDS011;56083;48.774;8.942;2022-08-21T06:57:13;6.82;;;2.42;;
69030;SDS011;56083;48.774;8.942;2022-08-21T06:59:38;5.82;;;2.08;;
69030;SDS011;56083;48.774;8.942;2022-08-21T07:02:04;5.30;;;2.42;;
69030;SDS011;56083;48.774;8.942;2022-08-21T07:04:30;6.15;;;2.20;;
69030;SDS011;56083;48.774;8.942;2022-08-21T07:06:55;5.40;;;2.20;;
69030;SDS011;56083;48.774;8.942;2022-08-21T07:09:21;6.15;;;2.30;;
69030;SDS011;56083;48.774;8.942;2022-08-21T07:11:48;5.55;;;2.20;;
69030;SDS011;56083;48.774;8.942;2022-08-21T07:14:17;3.97;;;2.10;;
69030;SDS011;56083;48.774;8.942;2022-08-21T07:16:42;7.68;;;2.90;;
69030;SDS011;56083;48.774;8.942;2022-08-21T07:19:08;7.07;;;2.70;;
69030;SDS011;56083;48.774;8.942;2022-08-21T07:21:34;4.88;;;2.25;;
69030;SDS011;56083;48.774;8.942;2022-08-21T07:23:59;7.25;;;2.70;;
69030;SDS011;56083;48.774;8.942;2022-08-21T07:26:25;7.75;;;2.67;;
69030;SDS011;56083;48.774;8.942;2022-08-21T07:28:51;10.07;;;3.20;;
69030;SDS011;56083;48.774;8.942;2022-08-21T07:31:18;8.02;;;2.70;;
69030;SDS011;56083;48.774;8.942;2022-08-21T07:33:46;7.82;;;2.95;;
69030;SDS011;56083;48.774;8.942;2022-08-21T07:36:12;9.63;;;2.97;;
69030;SDS011;56083;48.774;8.942;2022-08-21T07:38:38;11.30;;;3.10;;
69030;SDS011;56083;48.774;8.942;2022-08-21T07:41:07;10.15;;;3.30;;
69030;SDS011;56083;48.774;8.942;2022-08-21T07:43:41;10.82;;;3.70;;
69030;SDS011;56083;48.774;8.942;2022-08-21T07:46:08;8.98;;;2.90;;
69030;SDS011;56083;48.774;8.942;2022-08-21T07:48:34;10.00;;;3.33;;
69030;SDS011;56083;48.774;8.942;2022-08-21T07:51:01;8.57;;;3.28;;
69030;SDS011;56083;48.774;8.942;2022-08-21T07:53:30;7.10;;;2.70;;
69030;SDS011;56083;48.774;8.942;2022-08-21T07:55:59;8.40;;;3.13;;
69030;SDS011;56083;48.774;8.942;2022-08-21T07:58:25;7.95;;;3.05;;
69030;SDS011;56083;48.774;8.942;2022-08-21T08:00:51;10.85;;;3.67;;
69030;SDS011;56083;48.774;8.942;2022-08-21T08:03:16;10.98;;;3.50;;
69030;SDS011;56083;48.774;8.942;2022-08-21T08:05:42;9.80;;;2.90;;
69030;SDS011;56083;48.774;8.942;2022-08-21T08:08:08;6.93;;;2.97;;
69030;SDS011;56083;48.774;8.942;2022-08-21T08:10:33;8.23;;;3.25;;
69030;SDS011;56083;48.774;8.942;2022-08-21T08:13:00;10.23;;;3.38;;
69030;SDS011;56083;48.774;8.942;2022-08-21T08:15:26;8.25;;;3.03;;
69030;SDS011;56083;48.774;8.942;2022-08-21T08:17:52;8.75;;;3.50;;
69030;SDS011;56083;48.774;8.942;2022-08-21T08:20:20;10.77;;;3.47;;
69030;SDS011;56083;48.774;8.942;2022-08-21T08:22:47;6.75;;;3.10;;
69030;SDS011;56083;48.774;8.942;2022-08-21T08:25:15;8.63;;;3.00;;
69030;SDS011;56083;48.774;8.942;2022-08-21T08:27:42;5.78;;;2.97;;
69030;SDS011;56083;48.774;8.942;2022-08-21T08:30:08;10.32;;;2.83;;
69030;SDS011;56083;48.774;8.942;2022-08-21T08:32:36;7.18;;;2.83;;
69030;SDS011;56083;48.774;8.942;2022-08-21T08:35:03;4.88;;;2.58;;
69030;SDS011;56083;48.774;8.942;2022-08-21T08:37:30;9.18;;;3.10;;
69030;SDS011;56083;48.774;8.942;2022-08-21T08:39:56;7.55;;;3.30;;
69030;SDS011;56083;48.774;8.942;2022-08-21T08:42:27;6.63;;;3.00;;
69030;SDS011;56083;48.774;8.942;2022-08-21T08:44:59;8.68;;;3.10;;
69030;SDS011;56083;48.774;8.942;2022-08-21T08:47:27;10.85;;;3.35;;
69030;SDS011;56083;48.774;8.942;2022-08-21T08:50:01;8.52;;;3.20;;
69030;SDS011;56083;48.774;8.942;2022-08-21T08:53:06;7.82;;;3.00;;
69030;SDS011;56083;48.774;8.942;2022-08-21T08:56:01;10.10;;;3.20;;
69030;SDS011;56083;48.774;8.942;2022-08-21T08:58:31;9.18;;;3.22;;
69030;SDS011;56083;48.774;8.942;2022-08-21T09:01:02;12.20;;;3.50;;
69030;SDS011;56083;48.774;8.942;2022-08-21T09:03:33;9.65;;;3.33;;
69030;SDS011;56083;48.774;8.942;2022-08-21T09:06:08;9.30;;;3.33;;
69030;SDS011;56083;48.774;8.942;2022-08-21T09:09:02;8.68;;;3.05;;
69030;SDS011;56083;48.774;8.942;2022-08-21T09:11:41;8.13;;;2.97;;
69030;SDS011;56083;48.774;8.942;2022-08-21T09:26:19;8.90;;;2.92;;
69030;SDS011;56083;48.774;8.942;2022-08-21T09:28:51;10.00;;;3.13;;
69030;SDS011;56083;48.774;8.942;2022-08-21T09:31:26;8.95;;;3.08;;
69030;SDS011;56083;48.774;8.942;2022-08-21T09:34:08;8.48;;;3.17;;
69030;SDS011;56083;48.774;8.942;2022-08-21T09:39:10;10.10;;;3.40;;
69030;SDS011;56083;48.774;8.942;2022-08-21T09:41:38;6.95;;;3.05;;
69030;SDS011;56083;48.774;8.942;2022-08-21T09:44:05;10.98;;;3.40;;
69030;SDS011;56083;48.774;8.942;2022-08-21T09:46:32;7.30;;;2.90;;
69030;SDS011;56083;48.774;8.942;2022-08-21T09:48:59;7.75;;;2.92;;
69030;SDS011;56083;48.774;8.942;2022-08-21T09:51:28;6.20;;;2.50;;
69030;SDS011;56083;48.774;8.942;2022-08-21T09:56:31;9.25;;;2.83;;
69030;SDS011;56083;48.774;8.942;2022-08-21T09:59:29;10.55;;;3.08;;
69030;SDS011;56083;48.774;8.942;2022-08-21T10:02:03;8.70;;;2.80;;
69030;SDS011;56083;48.774;8.942;2022-08-21T10:04:55;10.50;;;2.88;;
69030;SDS011;56083;48.774;8.942;2022-08-21T10:07:23;9.57;;;2.88;;
69030;SDS011;56083;48.774;8.942;2022-08-21T10:09:58;5.55;;;2.63;;
69030;SDS011;56083;48.774;8.942;2022-08-21T10:21:30;6.57;;;2.80;;
69030;SDS011;56083;48.774;8.942;2022-08-21T10:26:44;10.77;;;2.90;;
69030;SDS011;56083;48.774;8.942;2022-08-21T10:32:02;10.77;;;2.88;;
69030;SDS011;56083;48.774;8.942;2022-08-21T10:37:27;5.55;;;2.70;;
69030;SDS011;56083;48.774;8.942;2022-08-21T10:40:02;9.43;;;3.20;;
69030;SDS011;56083;48.774;8.942;2022-08-21T10:45:36;6.97;;;3.05;;
69030;SDS011;56083;48.774;8.942;2022-08-21T10:48:16;6.03;;;2.90;;
69030;SDS011;56083;48.774;8.942;2022-08-21T10:51:54;6.55;;;2.90;;
69030;SDS011;56083;48.774;8.942;2022-08-21T10:56:44;8.73;;;3.10;;
69030;SDS011;56083;48.774;8.942;2022-08-21T10:59:26;6.53;;;2.83;;
69030;SDS011;56083;48.774;8.942;2022-08-21T11:02:06;5.78;;;2.72;;
69030;SDS011;56083;48.774;8.942;2022-08-21T11:07:35;7.03;;;3.00;;
69030;SDS011;56083;48.774;8.942;2022-08-21T11:10:27;8.93;;;2.72;;
69030;SDS011;56083;48.774;8.942;2022-08-21T11:13:11;5.97;;;2.78;;
69030;SDS011;56083;48.774;8.942;2022-08-21T11:16:00;7.07;;;2.90;;
69030;SDS011;56083;48.774;8.942;2022-08-21T11:18:47;4.70;;;2.80;;
69030;SDS011;56083;48.774;8.942;2022-08-21T11:24:30;6.82;;;3.05;;
69030;SDS011;56083;48.774;8.942;2022-08-21T11:29:51;6.43;;;2.97;;
69030;SDS011;56083;48.774;8.942;2022-08-21T11:54:26;10.60;;;3.05;;
69030;SDS011;56083;48.774;8.942;2022-08-21T11:59:43;8.93;;;3.17;;
69030;SDS011;56083;48.774;8.942;2022-08-21T12:02:15;7.10;;;3.17;;
69030;SDS011;56083;48.774;8.942;2022-08-21T12:04:55;6.95;;;2.97;;
69030;SDS011;56083;48.774;8.942;2022-08-21T12:07:33;7.00;;;2.90;;
69030;SDS011;56083;48.774;8.942;2022-08-21T12:10:09;7.35;;;2.65;;
69030;SDS011;56083;48.774;8.942;2022-08-21T12:12:38;10.60;;;2.75;;
69030;SDS011;56083;48.774;8.942;2022-08-21T12:17:53;5.97;;;2.95;;
69030;SDS011;56083;48.774;8.942;2022-08-21T12:23:30;5.65;;;3.13;;
69030;SDS011;56083;48.774;8.942;2022-08-21T12:26:11;5.50;;;2.80;;
69030;SDS011;56083;48.774;8.942;2022-08-21T12:28:42;7.72;;;2.92;;
69030;SDS011;56083;48.774;8.942;2022-08-21T12:31:19;5.13;;;2.95;;
69030;SDS011;56083;48.774;8.942;2022-08-21T12:34:01;8.60;;;2.97;;
69030;SDS011;56083;48.774;8.942;2022-08-21T12:37:04;8.48;;;3.15;;
69030;SDS011;56083;48.774;8.942;2022-08-21T12:39:27;6.07;;;3.10;;
69030;SDS011;56083;48.774;8.942;2022-08-21T12:42:01;6.63;;;2.97;;
69030;SDS011;56083;48.774;8.942;2022-08-21T12:44:37;6.30;;;3.20;;
69030;SDS011;56083;48.774;8.942;2022-08-21T12:50:52;8.80;;;3.05;;
69030;SDS011;56083;48.774;8.942;2022-08-21T12:53:37;6.80;;;2.60;;
69030;SDS011;56083;48.774;8.942;2022-08-21T12:56:10;5.97;;;2.70;;
69030;SDS011;56083;48.774;8.942;2022-08-21T12:58:44;6.10;;;2.83;;
69030;SDS011;56083;48.774;8.942;2022-08-21T13:03:49;8.93;;;2.97;;
69030;SDS011;56083;48.774;8.942;2022-08-21T13:06:18;11.73;;;3.10;;
69030;SDS011;56083;48.774;8.942;2022-08-21T13:08:45;5.63;;;2.65;;
69030;SDS011;56083;48.774;8.942;2022-08-21T13:11:14;7.20;;;2.80;;
69030;SDS011;56083;48.774;8.942;2022-08-21T13:13:47;7.88;;;2.88;;
69030;SDS011;56083;48.774;8.942;2022-08-21T13:16:17;5.95;;;2.88;;
69030;SDS011;56083;48.774;8.942;2022-08-21T13:19:19;7.95;;;2.72;;
69030;SDS011;56083;48.774;8.942;2022-08-21T13:21:43;7.50;;;2.85;;
69030;SDS011;56083;48.774;8.942;2022-08-21T13:24:13;9.38;;;3.20;;
69030;SDS011;56083;48.774;8.942;2022-08-21T13:26:45;6.13;;;3.10;;
69030;SDS011;56083;48.774;8.942;2022-08-21T13:29:12;12.25;;;3.00;;
69030;SDS011;56083;48.774;8.942;2022-08-21T13:31:54;8.73;;;2.80;;
69030;SDS011;56083;48.774;8.942;2022-08-21T13:34:25;10.38;;;3.08;;
69030;SDS011;56083;48.774;8.942;2022-08-21T13:37:00;8.90;;;3.03;;
69030;SDS011;56083;48.774;8.942;2022-08-21T13:39:29;18.33;;;3.25;;
69030;SDS011;56083;48.774;8.942;2022-08-21T13:41:56;7.10;;;3.13;;
69030;SDS011;56083;48.774;8.942;2022-08-21T13:44:34;6.82;;;2.88;;
69030;SDS011;56083;48.774;8.942;2022-08-21T13:47:02;9.95;;;3.10;;
69030;SDS011;56083;48.774;8.942;2022-08-21T13:49:34;8.30;;;3.15;;
69030;SDS011;56083;48.774;8.942;2022-08-21T13:52:04;8.02;;;3.50;;
69030;SDS011;56083;48.774;8.942;2022-08-21T13:54:39;6.70;;;3.03;;
69030;SDS011;56083;48.774;8.942;2022-08-21T13:57:19;6.45;;;3.03;;
69030;SDS011;56083;48.774;8.942;2022-08-21T13:59:50;5.75;;;2.97;;
69030;SDS011;56083;48.774;8.942;2022-08-21T14:02:18;6.13;;;3.05;;
69030;SDS011;56083;48.774;8.942;2022-08-21T14:07:17;11.60;;;3.00;;
69030;SDS011;56083;48.774;8.942;2022-08-21T14:09:51;7.55;;;3.05;;
69030;SDS011;56083;48.774;8.942;2022-08-21T14:12:38;7.45;;;2.90;;
69030;SDS011;56083;48.774;8.942;2022-08-21T14:15:08;8.52;;;3.10;;
69030;SDS011;56083;48.774;8.942;2022-08-21T14:17:36;10.35;;;3.10;;
69030;SDS011;56083;48.774;8.942;2022-08-21T14:20:08;11.95;;;2.78;;
69030;SDS011;56083;48.774;8.942;2022-08-21T14:22:51;8.63;;;3.17;;
69030;SDS011;56083;48.774;8.942;2022-08-21T14:27:48;5.90;;;2.58;;
69030;SDS011;56083;48.774;8.942;2022-08-21T14:30:41;7.10;;;2.90;;
69030;SDS011;56083;48.774;8.942;2022-08-21T14:33:13;6.15;;;3.00;;
69030;SDS011;56083;48.774;8.942;2022-08-21T14:35:51;6.00;;;2.60;;
69030;SDS011;56083;48.774;8.942;2022-08-21T14:38:18;5.70;;;2.92;;
69030;SDS011;56083;48.774;8.942;2022-08-21T14:40:47;10.57;;;3.03;;
69030;SDS011;56083;48.774;8.942;2022-08-21T14:43:15;5.75;;;2.80;;
69030;SDS011;56083;48.774;8.942;2022-08-21T14:45:41;7.78;;;2.80;;
69030;SDS011;56083;48.774;8.942;2022-08-21T14:48:08;6.25;;;2.60;;
69030;SDS011;56083;48.774;8.942;2022-08-21T14:50:34;5.70;;;2.85;;
69030;SDS011;56083;48.774;8.942;2022-08-21T14:53:00;5.47;;;2.90;;
69030;SDS011;56083;48.774;8.942;2022-08-21T14:55:26;3.58;;;2.50;;
69030;SDS011;56083;48.774;8.942;2022-08-21T14:57:52;10.38;;;3.00;;
69030;SDS011;56083;48.774;8.942;2022-08-21T15:00:21;6.95;;;2.85;;
69030;SDS011;56083;48.774;8.942;2022-08-21T15:02:49;7.85;;;2.65;;
69030;SDS011;56083;48.774;8.942;2022-08-21T15:05:15;9.13;;;2.60;;
69030;SDS011;56083;48.774;8.942;2022-08-21T15:07:41;7.60;;;2.80;;
69030;SDS011;56083;48.774;8.942;2022-08-21T15:10:07;7.07;;;2.72;;
69030;SDS011;56083;48.774;8.942;2022-08-21T15:12:40;5.55;;;2.58;;
69030;SDS011;56083;48.774;8.942;2022-08-21T15:15:06;7.55;;;2.75;;
69030;SDS011;56083;48.774;8.942;2022-08-21T15:17:34;8.45;;;2.80;;
69030;SDS011;56083;48.774;8.942;2022-08-21T15:20:01;5.70;;;2.67;;
69030;SDS011;56083;48.774;8.942;2022-08-21T15:22:29;8.77;;;2.60;;
69030;SDS011;56083;48.774;8.942;2022-08-21T15:24:55;5.70;;;2.70;;
69030;SDS011;56083;48.774;8.942;2022-08-21T15:27:21;8.13;;;2.53;;
69030;SDS011;56083;48.774;8.942;2022-08-21T15:29:47;4.10;;;2.58;;
69030;SDS011;56083;48.774;8.942;2022-08-21T15:32:17;9.80;;;2.55;;
69030;SDS011;56083;48.774;8.942;2022-08-21T15:34:46;4.20;;;2.22;;
69030;SDS011;56083;48.774;8.942;2022-08-21T15:37:11;4.75;;;2.60;;
69030;SDS011;56083;48.774;8.942;2022-08-21T15:39:37;7.60;;;2.70;;
69030;SDS011;56083;48.774;8.942;2022-08-21T15:42:03;7.40;;;2.75;;
69030;SDS011;56083;48.774;8.942;2022-08-21T15:44:29;6.30;;;2.72;;
69030;SDS011;56083;48.774;8.942;2022-08-21T15:46:55;6.40;;;2.38;;
69030;SDS011;56083;48.774;8.942;2022-08-21T15:49:22;5.80;;;2.83;;
69030;SDS011;56083;48.774;8.942;2022-08-21T15:51:48;7.95;;;2.60;;
69030;SDS011;56083;48.774;8.942;2022-08-21T15:54:17;5.05;;;2.75;;
69030;SDS011;56083;48.774;8.942;2022-08-21T15:56:43;6.95;;;2.70;;
69030;SDS011;56083;48.774;8.942;2022-08-21T15:59:13;8.48;;;2.72;;
69030;SDS011;56083;48.774;8.942;2022-08-21T16:01:42;7.43;;;2.70;;
69030;SDS011;56083;48.774;8.942;2022-08-21T16:04:07;5.53;;;2.60;;
69030;SDS011;56083;48.774;8.942;2022-08-21T16:06:36;7.28;;;2.72;;
69030;SDS011;56083;48.774;8.942;2022-08-21T16:09:11;7.25;;;2.90;;
69030;SDS011;56083;48.774;8.942;2022-08-21T16:11:37;8.00;;;2.42;;
69030;SDS011;56083;48.774;8.942;2022-08-21T16:14:07;5.78;;;2.78;;
69030;SDS011;56083;48.774;8.942;2022-08-21T16:16:33;5.93;;;2.63;;
69030;SDS011;56083;48.774;8.942;2022-08-21T16:19:00;6.20;;;2.42;;
69030;SDS011;56083;48.774;8.942;2022-08-21T16:21:28;7.18;;;2.45;;
69030;SDS011;56083;48.774;8.942;2022-08-21T16:23:54;11.10;;;3.58;;
69030;SDS011;56083;48.774;8.942;2022-08-21T16:26:20;10.38;;;2.88;;
69030;SDS011;56083;48.774;8.942;2022-08-21T16:28:49;9.70;;;2.60;;